createdAt,value
2018-09-12T00:01:55.140Z,21.15
2018-09-12T00:04:22.602Z,21.09
2018-09-12T00:06:50.082Z,21.08
2018-09-12T00:09:17.588Z,21.04
2018-09-12T00:11:45.018Z,21.08
2018-09-12T00:14:12.471Z,21.13
2018-09-12T00:16:39.948Z,21.21
2018-09-12T00:19:07.346Z,21.25
2018-09-12T00:21:34.852Z,21.28
2018-09-12T00:24:02.305Z,21.28
2018-09-12T00:26:29.729Z,21.29
2018-09-12T00:28:57.214Z,21.27
2018-09-12T00:31:24.674Z,21.26
2018-09-12T00:33:52.115Z,21.28
2018-09-12T00:36:19.577Z,21.27
2018-09-12T00:38:47.324Z,21.23
2018-09-12T00:41:15.096Z,21.05
2018-09-12T00:43:42.535Z,20.92
2018-09-12T00:46:09.959Z,20.83
2018-09-12T00:48:37.423Z,20.83
2018-09-12T00:51:04.855Z,20.79
2018-09-12T00:53:32.323Z,20.75
2018-09-12T00:55:59.754Z,20.82
2018-09-12T00:58:27.342Z,20.87
2018-09-12T01:00:54.801Z,20.79
2018-09-12T01:03:22.225Z,20.61
2018-09-12T01:05:49.632Z,20.54
2018-09-12T01:08:17.141Z,20.59
2018-09-12T01:10:44.763Z,20.49
2018-09-12T01:13:12.228Z,20.32
2018-09-12T01:15:39.673Z,20.28
2018-09-12T01:18:07.110Z,20.32
2018-09-12T01:20:34.546Z,20.30
2018-09-12T01:23:02.006Z,20.23
2018-09-12T01:25:29.478Z,20.17
2018-09-12T01:27:57.024Z,20.20
2018-09-12T01:30:24.510Z,20.28
2018-09-12T01:32:51.935Z,20.36
2018-09-12T01:35:19.392Z,20.42
2018-09-12T01:37:46.887Z,20.38
2018-09-12T01:40:14.330Z,20.34
2018-09-12T01:42:41.780Z,20.27
2018-09-12T01:45:09.258Z,20.23
2018-09-12T01:47:37.540Z,20.09
2018-09-12T01:50:04.990Z,20.05
2018-09-12T01:52:32.399Z,20.08
2018-09-12T01:54:59.913Z,20.16
2018-09-12T01:57:27.337Z,20.15
2018-09-12T01:59:54.743Z,20.12
2018-09-12T02:02:22.177Z,20.12
2018-09-12T02:04:49.646Z,20.05
2018-09-12T02:07:17.140Z,19.98
2018-09-12T02:09:44.597Z,19.86
2018-09-12T02:12:12.033Z,19.75
2018-09-12T02:14:39.443Z,19.80
2018-09-12T02:17:06.865Z,19.91
2018-09-12T02:19:34.308Z,20.00
2018-09-12T02:22:01.776Z,20.03
2018-09-12T02:24:29.241Z,20.04
2018-09-12T02:26:56.859Z,20.08
2018-09-12T02:29:24.351Z,20.09
2018-09-12T02:31:51.905Z,20.09
2018-09-12T02:34:19.317Z,20.11
2018-09-12T02:36:46.767Z,20.11
2018-09-12T02:39:14.246Z,20.13
2018-09-12T02:41:41.744Z,20.10
2018-09-12T02:44:09.209Z,19.98
2018-09-12T02:46:36.684Z,19.88
2018-09-12T02:49:04.156Z,19.81
2018-09-12T02:51:31.687Z,19.82
2018-09-12T02:53:59.156Z,19.77
2018-09-12T02:56:26.578Z,19.76
2018-09-12T03:02:08.541Z,19.83
2018-09-12T03:04:35.950Z,19.89
2018-09-12T03:07:03.436Z,19.93
2018-09-12T03:09:30.880Z,19.94
2018-09-12T03:11:58.291Z,19.90
2018-09-12T03:14:25.774Z,19.77
2018-09-12T03:16:53.200Z,19.63
2018-09-12T03:19:20.611Z,19.65
2018-09-12T03:21:48.063Z,19.73
2018-09-12T03:24:15.540Z,19.78
2018-09-12T03:26:43.001Z,19.66
2018-09-12T03:29:10.404Z,19.58
2018-09-12T03:31:37.922Z,19.38
2018-09-12T03:34:05.391Z,19.22
2018-09-12T03:36:32.874Z,19.14
2018-09-12T03:39:00.322Z,19.09
2018-09-12T03:41:27.793Z,19.24
2018-09-12T03:43:55.244Z,19.30
2018-09-12T03:46:22.705Z,19.26
2018-09-12T03:48:50.148Z,19.28
2018-09-12T03:51:17.587Z,19.35
2018-09-12T03:53:44.993Z,19.43
2018-09-12T03:56:12.452Z,19.45
2018-09-12T03:58:39.867Z,19.48
2018-09-12T04:01:07.351Z,19.50
2018-09-12T04:03:34.831Z,19.56
2018-09-12T04:06:02.309Z,19.60
2018-09-12T04:08:29.755Z,19.58
2018-09-12T04:10:57.176Z,19.47
2018-09-12T04:13:25.248Z,19.42
2018-09-12T04:15:52.756Z,19.43
2018-09-12T04:18:20.293Z,19.44
2018-09-12T04:20:47.783Z,19.42
2018-09-12T04:23:15.186Z,19.43
2018-09-12T04:25:42.663Z,19.30
2018-09-12T04:28:10.188Z,19.20
2018-09-12T04:30:38.468Z,19.15
2018-09-12T04:33:05.892Z,19.09
2018-09-12T04:35:33.476Z,19.07
2018-09-12T04:38:01.872Z,19.14
2018-09-12T04:40:29.733Z,19.19
2018-09-12T04:42:57.241Z,19.16
2018-09-12T04:45:24.668Z,19.14
2018-09-12T04:47:52.128Z,19.13
2018-09-12T04:50:21.268Z,19.09
2018-09-12T04:52:52.059Z,19.14
2018-09-12T04:55:19.546Z,19.18
2018-09-12T04:57:47.462Z,19.22
2018-09-12T05:00:14.908Z,19.22
2018-09-12T05:02:42.400Z,19.11
2018-09-12T05:05:09.898Z,19.06
2018-09-12T05:07:37.596Z,18.99
2018-09-12T05:10:05.116Z,18.96
2018-09-12T05:12:32.576Z,18.95
2018-09-12T05:14:59.995Z,19.01
2018-09-12T05:17:28.210Z,19.09
2018-09-12T05:19:55.847Z,19.17
2018-09-12T05:22:23.317Z,19.25
2018-09-12T05:24:50.732Z,19.11
2018-09-12T05:27:18.240Z,19.09
2018-09-12T05:29:45.688Z,19.13
2018-09-12T05:32:13.279Z,19.14
2018-09-12T05:34:40.720Z,19.10
2018-09-12T05:37:08.130Z,19.05
2018-09-12T05:39:35.632Z,19.08
2018-09-12T05:42:03.171Z,19.13
2018-09-12T05:44:30.618Z,19.24
2018-09-12T05:46:58.027Z,19.50
2018-09-12T05:49:25.563Z,20.12
2018-09-12T05:51:53.060Z,20.69
2018-09-12T05:54:20.531Z,21.22
2018-09-12T05:56:48.075Z,21.58
2018-09-12T05:59:15.678Z,22.16
2018-09-12T06:01:44.344Z,22.59
2018-09-12T06:04:11.832Z,23.15
2018-09-12T06:06:39.424Z,23.39
2018-09-12T06:09:06.847Z,23.57
2018-09-12T06:11:34.330Z,23.70
2018-09-12T06:14:01.804Z,23.92
2018-09-12T06:16:29.537Z,24.29
2018-09-12T06:18:57.052Z,24.64
2018-09-12T06:21:24.599Z,24.64
2018-09-12T06:23:52.082Z,24.94
2018-09-12T06:26:19.573Z,25.04
2018-09-12T06:28:47.008Z,25.25
2018-09-12T06:31:15.029Z,25.62
2018-09-12T06:33:42.439Z,25.84
2018-09-12T06:36:10.033Z,26.13
2018-09-12T06:38:37.694Z,26.28
2018-09-12T06:41:05.168Z,26.61
2018-09-12T06:43:32.767Z,26.98
2018-09-12T06:46:00.220Z,27.17
2018-09-12T06:48:27.802Z,27.22
2018-09-12T06:50:55.210Z,26.93
2018-09-12T06:53:22.695Z,26.54
2018-09-12T06:55:50.138Z,26.14
2018-09-12T06:58:17.636Z,26.03
2018-09-12T07:00:45.265Z,26.02
2018-09-12T07:03:12.904Z,26.26
2018-09-12T07:05:40.364Z,26.62
2018-09-12T07:08:07.824Z,26.55
2018-09-12T07:10:35.285Z,26.47
2018-09-12T07:13:02.776Z,26.69
2018-09-12T07:15:30.211Z,27.01
2018-09-12T07:17:57.740Z,27.27
2018-09-12T07:20:25.224Z,27.57
2018-09-12T07:22:52.661Z,27.97
2018-09-12T07:25:20.105Z,28.00
2018-09-12T07:27:47.633Z,28.51
2018-09-12T07:30:15.214Z,29.14
2018-09-12T07:32:42.203Z,28.83
2018-09-12T07:35:09.705Z,29.12
2018-09-12T07:37:37.195Z,29.43
2018-09-12T07:40:04.757Z,29.61
2018-09-12T07:42:31.739Z,29.73
2018-09-12T07:44:58.769Z,30.28
2018-09-12T07:47:25.924Z,30.28
2018-09-12T07:49:52.924Z,30.20
2018-09-12T07:52:19.989Z,30.68
2018-09-12T07:54:46.980Z,30.88
2018-09-12T07:57:14.448Z,30.95
2018-09-12T07:59:42.002Z,30.52
2018-09-12T08:02:09.452Z,30.85
2018-09-12T08:04:36.939Z,31.56
2018-09-12T08:07:04.436Z,31.76
2018-09-12T08:09:31.868Z,31.72
2018-09-12T08:11:59.276Z,32.05
2018-09-12T08:14:26.720Z,32.10
2018-09-12T08:16:54.214Z,32.01
2018-09-12T08:19:22.067Z,31.84
2018-09-12T08:21:49.605Z,32.44
2018-09-12T08:24:17.142Z,33.14
2018-09-12T08:26:44.661Z,33.72
2018-09-12T08:29:11.736Z,33.87
2018-09-12T08:31:39.207Z,33.82
2018-09-12T08:34:06.748Z,33.89
2018-09-12T08:36:34.347Z,34.15
2018-09-12T08:39:01.248Z,34.45
2018-09-12T08:41:28.757Z,34.69
2018-09-12T08:43:56.287Z,34.74
2018-09-12T08:46:23.355Z,34.36
2018-09-12T08:48:50.381Z,34.42
2018-09-12T08:51:17.396Z,34.42
2018-09-12T08:53:44.409Z,34.01
2018-09-12T08:56:11.497Z,33.78
2018-09-12T08:58:38.454Z,33.83
2018-09-12T09:01:06.112Z,33.89
2018-09-12T09:03:33.571Z,32.87
2018-09-12T09:06:01.117Z,32.66
2018-09-12T09:08:28.585Z,32.11
2018-09-12T09:10:56.276Z,31.31
2018-09-12T09:13:23.945Z,31.25
2018-09-12T09:15:51.481Z,31.13
2018-09-12T09:18:18.940Z,31.13
2018-09-12T09:20:46.435Z,30.44
2018-09-12T09:23:13.883Z,30.10
2018-09-12T09:25:41.345Z,30.38
2018-09-12T09:28:09.095Z,30.81
2018-09-12T09:30:36.567Z,30.64
2018-09-12T09:33:04.094Z,30.36
2018-09-12T09:35:31.695Z,31.05
2018-09-12T09:37:59.065Z,31.13
2018-09-12T09:40:26.662Z,31.24
2018-09-12T09:42:54.108Z,30.85
2018-09-12T09:45:21.535Z,30.60
2018-09-12T09:47:49.103Z,30.59
2018-09-12T09:50:16.473Z,30.58
2018-09-12T09:52:43.933Z,30.58
2018-09-12T09:55:11.514Z,30.54
2018-09-12T09:57:38.806Z,30.73
2018-09-12T10:00:06.354Z,31.31
2018-09-12T10:02:34.737Z,31.25
2018-09-12T10:05:02.146Z,31.08
2018-09-12T10:07:29.720Z,30.99
2018-09-12T10:09:57.331Z,31.50
2018-09-12T10:12:24.801Z,31.84
2018-09-12T10:14:52.372Z,32.07
2018-09-12T10:17:19.901Z,32.28
2018-09-12T10:19:47.424Z,31.99
2018-09-12T10:22:14.917Z,31.88
2018-09-12T10:24:42.518Z,31.68
2018-09-12T10:27:09.996Z,31.52
2018-09-12T10:29:37.457Z,31.64
2018-09-12T10:32:04.858Z,32.14
2018-09-12T10:34:32.348Z,32.18
2018-09-12T10:36:59.842Z,32.36
2018-09-12T10:39:27.427Z,32.39
2018-09-12T10:41:54.920Z,32.16
2018-09-12T10:44:22.441Z,31.95
2018-09-12T10:46:49.981Z,31.94
2018-09-12T10:49:17.428Z,31.97
2018-09-12T10:51:44.889Z,32.21
2018-09-12T10:54:13.089Z,32.25
2018-09-12T10:56:40.616Z,32.33
2018-09-12T10:59:08.212Z,32.30
2018-09-12T11:01:35.659Z,32.07
2018-09-12T11:04:03.294Z,31.68
2018-09-12T11:06:30.826Z,31.52
2018-09-12T11:08:58.283Z,31.73
2018-09-12T11:11:26.828Z,32.35
2018-09-12T11:13:54.355Z,32.60
2018-09-12T11:16:21.822Z,32.52
2018-09-12T11:18:49.402Z,32.63
2018-09-12T11:21:16.886Z,32.51
2018-09-12T11:23:44.309Z,32.54
2018-09-12T11:26:11.805Z,32.46
2018-09-12T11:28:39.294Z,33.09
2018-09-12T11:31:06.838Z,33.01
2018-09-12T11:33:34.269Z,32.79
2018-09-12T11:36:01.769Z,32.70
2018-09-12T11:38:29.399Z,32.71
2018-09-12T11:40:56.888Z,32.99
2018-09-12T11:43:24.443Z,33.16
2018-09-12T11:45:51.918Z,33.09
2018-09-12T11:48:19.505Z,33.04
2018-09-12T11:50:47.542Z,33.19
2018-09-12T11:53:15.026Z,33.25
2018-09-12T11:55:43.081Z,33.57
2018-09-12T11:58:11.740Z,33.52
2018-09-12T12:00:39.706Z,33.27
2018-09-12T12:03:07.173Z,33.50
2018-09-12T12:05:34.701Z,33.62
2018-09-12T12:08:02.183Z,33.35
2018-09-12T12:10:29.707Z,33.22
2018-09-12T12:12:57.164Z,33.93
2018-09-12T12:15:24.707Z,34.42
2018-09-12T12:17:51.661Z,34.83
2018-09-12T12:20:18.681Z,34.86
2018-09-12T12:22:45.651Z,35.00
2018-09-12T12:25:13.158Z,35.12
2018-09-12T12:27:40.165Z,35.37
2018-09-12T12:30:07.614Z,35.78
2018-09-12T12:32:35.167Z,35.71
2018-09-12T12:35:02.615Z,35.45
2018-09-12T12:37:30.102Z,35.66
2018-09-12T12:39:57.695Z,35.50
2018-09-12T12:42:25.178Z,35.47
2018-09-12T12:44:52.700Z,35.45
2018-09-12T12:47:20.123Z,35.46
2018-09-12T12:49:47.643Z,35.66
2018-09-12T12:52:15.125Z,35.66
2018-09-12T12:54:42.582Z,35.57
2018-09-12T12:57:10.042Z,35.41
2018-09-12T12:59:37.533Z,35.48
2018-09-12T13:02:05.085Z,35.19
2018-09-12T13:04:32.809Z,35.20
2018-09-12T13:07:00.257Z,35.27
2018-09-12T13:09:27.861Z,35.40
2018-09-12T13:11:55.395Z,35.35
2018-09-12T13:14:22.915Z,35.37
2018-09-12T13:16:50.400Z,35.64
2018-09-12T13:19:17.832Z,35.75
2018-09-12T13:21:45.455Z,35.90
2018-09-12T13:24:12.944Z,35.98
2018-09-12T13:26:40.412Z,36.24
2018-09-12T13:29:07.940Z,36.25
2018-09-12T13:31:35.484Z,36.01
2018-09-12T13:34:02.975Z,35.79
2018-09-12T13:36:30.444Z,35.61
2018-09-12T13:38:57.951Z,35.62
2018-09-12T13:41:25.407Z,35.66
2018-09-12T13:43:52.894Z,35.64
2018-09-12T13:46:20.431Z,35.35
2018-09-12T13:48:47.896Z,35.46
2018-09-12T13:51:15.472Z,35.79
2018-09-12T13:53:43.017Z,35.72
2018-09-12T13:56:10.554Z,35.68
2018-09-12T13:58:38.038Z,36.01
2018-09-12T14:01:05.624Z,36.16
2018-09-12T14:03:33.083Z,35.70
2018-09-12T14:06:00.519Z,35.00
2018-09-12T14:08:28.782Z,35.03
2018-09-12T14:10:56.193Z,35.00
2018-09-12T14:13:23.745Z,34.99
2018-09-12T14:15:51.349Z,34.86
2018-09-12T14:18:18.816Z,35.12
2018-09-12T14:20:46.287Z,35.08
2018-09-12T14:23:13.782Z,35.08
2018-09-12T14:25:41.444Z,35.22
2018-09-12T14:28:08.917Z,35.39
2018-09-12T14:30:36.382Z,35.14
2018-09-12T14:33:04.040Z,35.20
2018-09-12T14:35:31.538Z,35.35
2018-09-12T14:37:58.992Z,35.54
2018-09-12T14:40:26.464Z,35.59
2018-09-12T14:42:53.948Z,35.48
2018-09-12T14:45:21.476Z,35.38
2018-09-12T14:47:48.929Z,35.44
2018-09-12T14:50:16.507Z,35.63
2018-09-12T14:52:43.988Z,35.37
2018-09-12T14:55:11.411Z,35.22
2018-09-12T14:57:39.122Z,35.02
2018-09-12T15:00:06.929Z,34.94
2018-09-12T15:02:34.970Z,34.90
2018-09-12T15:05:02.402Z,34.96
2018-09-12T15:07:29.892Z,34.84
2018-09-12T15:09:57.367Z,34.52
2018-09-12T15:12:24.819Z,34.37
2018-09-12T15:14:52.311Z,34.27
2018-09-12T15:17:19.882Z,34.14
2018-09-12T15:19:47.324Z,33.93
2018-09-12T15:22:14.796Z,33.62
2018-09-12T15:24:41.767Z,33.27
2018-09-12T15:27:09.591Z,33.14
2018-09-12T15:29:36.618Z,33.20
2018-09-12T15:32:03.755Z,33.09
2018-09-12T15:34:30.842Z,33.07
2018-09-12T15:36:57.824Z,33.04
2018-09-12T15:39:24.949Z,32.89
2018-09-12T15:41:52.008Z,32.72
2018-09-12T15:44:19.051Z,32.63
2018-09-12T15:46:46.037Z,32.60
2018-09-12T15:49:14.007Z,32.59
2018-09-12T15:51:41.006Z,32.57
2018-09-12T15:54:08.071Z,32.60
2018-09-12T15:56:35.064Z,32.84
2018-09-12T15:59:02.066Z,33.08
2018-09-12T16:01:29.068Z,33.18
2018-09-12T16:03:56.152Z,33.23
2018-09-12T16:06:23.085Z,33.22
2018-09-12T16:08:50.112Z,33.23
2018-09-12T16:11:17.148Z,33.29
2018-09-12T16:13:44.216Z,33.41
2018-09-12T16:16:11.183Z,33.42
2018-09-12T16:18:38.142Z,33.25
2018-09-12T16:21:05.134Z,33.07
2018-09-12T16:23:32.106Z,32.80
2018-09-12T16:25:59.170Z,32.56
2018-09-12T16:28:26.170Z,32.45
2018-09-12T16:30:53.342Z,32.27
2018-09-12T16:33:20.400Z,32.13
2018-09-12T16:35:47.388Z,32.03
2018-09-12T16:38:14.811Z,31.92
2018-09-12T16:40:41.895Z,31.80
2018-09-12T16:43:08.857Z,31.69
2018-09-12T16:45:36.110Z,31.61
2018-09-12T16:48:03.316Z,31.53
2018-09-12T16:50:30.316Z,31.40
2018-09-12T16:52:57.752Z,31.23
2018-09-12T16:55:25.236Z,31.15
2018-09-12T16:57:52.814Z,31.09
2018-09-12T17:00:20.281Z,31.01
2018-09-12T17:02:47.727Z,30.93
2018-09-12T17:05:15.147Z,30.84
2018-09-12T17:07:42.599Z,30.68
2018-09-12T17:10:10.106Z,30.64
2018-09-12T17:12:37.625Z,30.54
2018-09-12T17:15:05.140Z,30.49
2018-09-12T17:17:32.637Z,30.40
2018-09-12T17:20:00.068Z,30.29
2018-09-12T17:22:27.452Z,30.18
2018-09-12T17:24:54.890Z,30.09
2018-09-12T17:27:22.331Z,30.03
2018-09-12T17:29:49.894Z,29.93
2018-09-12T17:32:17.367Z,29.85
2018-09-12T17:34:44.310Z,29.72
2018-09-12T17:37:11.324Z,29.67
2018-09-12T17:39:38.303Z,29.57
2018-09-12T17:42:05.406Z,29.50
2018-09-12T17:44:32.435Z,29.46
2018-09-12T17:46:59.443Z,29.44
2018-09-12T17:49:26.430Z,29.34
2018-09-12T17:51:53.436Z,29.28
2018-09-12T17:54:20.445Z,29.22
2018-09-12T17:56:47.888Z,29.13
2018-09-12T17:59:15.356Z,29.07
2018-09-12T18:01:42.347Z,28.96
2018-09-12T18:04:09.872Z,28.92
2018-09-12T18:06:37.304Z,28.86
2018-09-12T18:09:04.261Z,28.82
2018-09-12T18:11:31.248Z,28.81
2018-09-12T18:13:58.389Z,28.75
2018-09-12T18:16:25.702Z,28.78
2018-09-12T18:18:52.675Z,28.78
2018-09-12T18:21:19.734Z,28.74
2018-09-12T18:23:48.093Z,28.72
2018-09-12T18:26:15.063Z,28.70
2018-09-12T18:28:42.622Z,28.62
2018-09-12T18:31:09.644Z,28.58
2018-09-12T18:33:36.695Z,28.53
2018-09-12T18:36:04.138Z,28.43
2018-09-12T18:38:31.668Z,28.33
2018-09-12T18:40:59.200Z,28.26
2018-09-12T18:43:26.196Z,28.20
2018-09-12T18:45:53.655Z,28.17
2018-09-12T18:48:21.147Z,28.16
2018-09-12T18:50:48.235Z,28.15
2018-09-12T18:53:15.264Z,28.08
2018-09-12T18:55:42.803Z,28.03
2018-09-12T18:58:10.206Z,28.01
2018-09-12T19:00:37.608Z,28.00
2018-09-12T19:03:05.114Z,27.98
2018-09-12T19:05:32.685Z,27.90
2018-09-12T19:08:00.118Z,27.81
2018-09-12T19:10:27.661Z,27.79
2018-09-12T19:12:55.083Z,27.72
2018-09-12T19:15:22.558Z,27.69
2018-09-12T19:17:50.040Z,27.66
2018-09-12T19:20:17.026Z,27.62
2018-09-12T19:22:44.006Z,27.59
2018-09-12T19:25:10.994Z,27.59
2018-09-12T19:27:38.472Z,27.62
2018-09-12T19:30:05.923Z,27.58
2018-09-12T19:32:33.356Z,27.51
2018-09-12T19:35:00.829Z,27.47
2018-09-12T19:37:28.332Z,27.43
2018-09-12T19:39:55.931Z,27.41
2018-09-12T19:42:23.403Z,27.40
2018-09-12T19:44:50.876Z,27.39
2018-09-12T19:47:18.353Z,27.36
2018-09-12T19:49:45.852Z,27.38
2018-09-12T19:52:13.264Z,27.38
2018-09-12T19:54:40.853Z,27.35
2018-09-12T19:57:08.390Z,27.30
2018-09-12T19:59:35.872Z,27.28
2018-09-12T20:02:03.295Z,27.23
2018-09-12T20:04:30.851Z,27.20
2018-09-12T20:06:58.678Z,27.17
2018-09-12T20:09:26.132Z,27.15
2018-09-12T20:11:53.612Z,27.11
2018-09-12T20:14:21.108Z,27.05
2018-09-12T20:16:49.515Z,27.03
2018-09-12T20:19:16.996Z,27.00
2018-09-12T20:21:44.458Z,27.00
2018-09-12T20:24:11.949Z,26.92
2018-09-12T20:26:39.411Z,26.92
2018-09-12T20:29:06.876Z,26.92
2018-09-12T20:31:34.320Z,26.92
2018-09-12T20:34:01.842Z,26.88
2018-09-12T20:36:29.287Z,26.87
2018-09-12T20:38:56.822Z,26.83
2018-09-12T20:41:24.272Z,26.77
2018-09-12T20:43:51.703Z,26.69
2018-09-12T20:46:19.146Z,26.65
2018-09-12T20:48:46.603Z,26.68
2018-09-12T20:51:14.040Z,26.69
2018-09-12T20:53:41.020Z,26.71
2018-09-12T20:56:08.002Z,26.75
2018-09-12T20:58:35.017Z,26.72
2018-09-12T21:01:01.958Z,26.71
2018-09-12T21:03:29.048Z,26.73
2018-09-12T21:05:56.028Z,26.72
2018-09-12T21:08:23.446Z,26.71
2018-09-12T21:10:50.962Z,26.71
2018-09-12T21:13:18.415Z,26.70
2018-09-12T21:15:45.854Z,26.66
2018-09-12T21:18:13.425Z,26.64
2018-09-12T21:20:40.432Z,26.65
2018-09-12T21:23:08.071Z,26.61
2018-09-12T21:25:35.480Z,26.56
2018-09-12T21:28:02.954Z,26.50
2018-09-12T21:30:30.491Z,26.47
2018-09-12T21:32:57.951Z,26.45
2018-09-12T21:35:25.415Z,26.46
2018-09-12T21:37:52.872Z,26.47
2018-09-12T21:40:20.367Z,26.45
2018-09-12T21:42:47.771Z,26.47
2018-09-12T21:45:15.256Z,26.45
2018-09-12T21:47:42.739Z,26.44
2018-09-12T21:50:10.176Z,26.43
2018-09-12T21:52:37.659Z,26.41
2018-09-12T21:55:05.120Z,26.37
2018-09-12T21:57:32.523Z,26.38
2018-09-12T21:59:59.981Z,26.38
2018-09-12T22:02:27.390Z,26.36
2018-09-12T22:04:54.907Z,26.36
2018-09-12T22:07:22.402Z,26.30
2018-09-12T22:09:50.274Z,26.26
2018-09-12T22:12:17.741Z,26.22
2018-09-12T22:14:45.202Z,26.22
2018-09-12T22:17:12.647Z,26.23
2018-09-12T22:19:40.060Z,26.18
2018-09-12T22:22:07.471Z,26.13
2018-09-12T22:24:34.870Z,26.08
2018-09-12T22:27:02.368Z,26.05
2018-09-12T22:29:29.851Z,25.95
2018-09-12T22:31:57.275Z,25.89
2018-09-12T22:34:24.786Z,25.82
2018-09-12T22:36:52.207Z,25.76
2018-09-12T22:39:19.642Z,25.69
2018-09-12T22:41:47.070Z,25.60
2018-09-12T22:44:14.556Z,25.54
2018-09-12T22:46:42.052Z,25.43
2018-09-12T22:49:09.509Z,25.40
2018-09-12T22:51:36.977Z,25.30
2018-09-12T22:54:04.461Z,25.33
2018-09-12T22:56:31.944Z,25.20
2018-09-12T22:58:59.427Z,25.13
2018-09-12T23:01:26.919Z,25.13
2018-09-12T23:03:54.378Z,25.21
2018-09-12T23:06:21.806Z,25.24
2018-09-12T23:08:49.376Z,25.24
2018-09-12T23:11:16.834Z,25.15
2018-09-12T23:13:44.276Z,25.10
2018-09-12T23:16:11.745Z,25.08
2018-09-12T23:18:39.183Z,25.11
2018-09-12T23:21:06.681Z,25.09
2018-09-12T23:23:34.239Z,25.05
2018-09-12T23:26:01.699Z,24.96
2018-09-12T23:28:29.119Z,24.92
2018-09-12T23:30:56.611Z,24.95
2018-09-12T23:33:24.998Z,24.98
2018-09-12T23:35:52.422Z,25.03
2018-09-12T23:38:19.847Z,25.08
2018-09-12T23:40:47.360Z,25.02
2018-09-12T23:43:14.822Z,24.92
2018-09-12T23:45:41.854Z,24.89
2018-09-12T23:48:09.631Z,24.92
2018-09-12T23:50:36.603Z,24.96
2018-09-12T23:53:03.603Z,24.93
2018-09-12T23:55:30.679Z,24.92
2018-09-12T23:57:57.689Z,24.85
